Time;durP1;ratioP1;P1;durP2;ratioP2;P2;SDS_P1;SDS_P2;PMS_P1;PMS_P2;Temp;Humidity;BMP_temperature;BMP_pressure;BME280_temperature;BME280_humidity;BME280_pressure;Samples;Min_cycle;Max_cycle;Signal;HPM_P1;HPM_P2
2023/12/16 00:02:22;;;;;;;20.48;13.45;;;;;;;6.85;88.34;98855.13;4898442;29;20060;-81
2023/12/16 00:04:49;;;;;;;25.17;13.85;;;;;;;6.84;88.81;98865.59;4898669;29;20045;-81
2023/12/16 00:07:17;;;;;;;18.63;13.88;;;;;;;6.86;89.39;98866.31;4908471;29;20114;-81
2023/12/16 00:09:45;;;;;;;22.20;14.25;;;;;;;6.88;89.54;98869.66;4917685;29;20155;-80
2023/12/16 00:12:13;;;;;;;21.95;14.98;;;;;;;6.90;90.65;98873.81;4917357;29;20106;-81
2023/12/16 00:14:41;;;;;;;19.10;13.77;;;;;;;6.92;90.60;98874.53;4917000;29;20055;-81
2023/12/16 00:17:08;;;;;;;21.50;14.30;;;;;;;6.94;90.92;98864.06;4916457;29;20497;-81
2023/12/16 00:19:38;;;;;;;21.25;15.38;;;;;;;6.95;90.94;98866.56;4916721;29;20052;-80
2023/12/16 00:22:06;;;;;;;18.60;14.18;;;;;;;6.93;90.19;98873.63;4916991;29;20052;-80
2023/12/16 00:24:33;;;;;;;20.98;15.05;;;;;;;6.92;89.64;98879.72;4916846;29;20068;-80
2023/12/16 00:27:01;;;;;;;23.23;15.18;;;;;;;6.91;90.08;98887.59;4916682;29;20056;-81
2023/12/16 00:29:28;;;;;;;24.85;15.55;;;;;;;6.90;90.16;98881.59;4916426;29;20048;-80
2023/12/16 00:31:56;;;;;;;23.20;14.60;;;;;;;6.89;89.48;98881.72;4920099;29;20139;-80
2023/12/16 00:34:23;;;;;;;23.33;15.45;;;;;;;6.87;89.51;98879.22;4920735;29;20052;-80
2023/12/16 00:36:53;;;;;;;22.42;15.23;;;;;;;6.86;89.35;98880.13;4920842;29;20048;-81
2023/12/16 00:39:21;;;;;;;21.98;14.30;;;;;;;6.85;89.77;98875.88;4920420;29;20413;-81
2023/12/16 00:41:48;;;;;;;20.75;14.60;;;;;;;6.86;90.10;98882.72;4920537;29;20401;-80
2023/12/16 00:44:16;;;;;;;18.70;13.48;;;;;;;6.86;89.64;98887.91;4920722;29;20076;-81
2023/12/16 00:46:44;;;;;;;20.95;14.15;;;;;;;6.81;87.97;98898.59;4920404;29;20090;-81
2023/12/16 00:49:11;;;;;;;20.30;14.10;;;;;;;6.80;88.46;98893.53;4920140;29;20112;-81
2023/12/16 00:51:39;;;;;;;20.17;14.07;;;;;;;6.84;90.23;98902.75;4920320;29;20107;-80
2023/12/16 00:54:09;;;;;;;20.58;13.45;;;;;;;6.84;89.19;98900.16;4918882;29;20136;-80
2023/12/16 00:56:37;;;;;;;20.20;15.30;;;;;;;6.84;88.75;98907.94;4920282;29;20484;-81
2023/12/16 00:59:04;;;;;;;22.15;14.20;;;;;;;6.84;87.47;98904.50;4920092;29;20108;-81
2023/12/16 01:01:32;;;;;;;21.45;14.93;;;;;;;6.78;87.08;98892.78;4919666;29;20504;-80
2023/12/16 01:04:00;;;;;;;21.75;14.65;;;;;;;6.80;89.11;98893.53;4919976;29;20064;-80
2023/12/16 01:06:28;;;;;;;23.08;15.27;;;;;;;6.84;90.45;98896.72;4919088;29;20127;-80
2023/12/16 01:08:55;;;;;;;20.63;14.93;;;;;;;6.82;90.08;98896.81;4919759;29;20051;-80
2023/12/16 01:11:24;;;;;;;23.50;14.48;;;;;;;6.78;89.43;98885.00;4919474;29;20414;-81
2023/12/16 01:13:52;;;;;;;17.75;13.93;;;;;;;6.77;89.92;98893.72;4919122;29;20473;-81
2023/12/16 01:16:20;;;;;;;20.05;13.63;;;;;;;6.78;88.55;98895.38;4918890;29;20083;-80
2023/12/16 01:18:48;;;;;;;21.38;13.70;;;;;;;6.74;88.03;98888.75;4919428;29;20062;-79
2023/12/16 01:21:17;;;;;;;18.15;13.48;;;;;;;6.75;88.28;98886.03;4919841;29;20059;-82
2023/12/16 01:23:45;;;;;;;20.85;13.40;;;;;;;6.75;88.87;98885.19;4920322;29;20058;-80
2023/12/16 01:26:13;;;;;;;21.98;14.10;;;;;;;6.79;90.56;98878.88;4919702;29;20468;-81
2023/12/16 01:28:42;;;;;;;20.63;13.55;;;;;;;6.81;88.80;98890.81;4919730;29;20111;-80
2023/12/16 01:31:10;;;;;;;25.90;15.48;;;;;;;6.78;88.01;98896.22;4920325;29;20048;-80
2023/12/16 01:33:38;;;;;;;22.70;15.13;;;;;;;6.79;87.67;98895.28;4920148;29;20127;-81
2023/12/16 01:36:06;;;;;;;22.33;13.98;;;;;;;6.84;88.80;98899.31;4919575;29;20059;-81
2023/12/16 01:38:34;;;;;;;24.30;14.60;;;;;;;6.89;90.56;98895.50;4920062;29;20068;-81
2023/12/16 01:41:02;;;;;;;21.23;15.23;;;;;;;6.90;89.75;98904.94;4919023;29;20560;-80
2023/12/16 01:43:30;;;;;;;24.50;14.80;;;;;;;6.90;89.43;98910.13;4919330;29;20095;-80
2023/12/16 01:46:02;;;;;;;22.85;14.32;;;;;;;6.92;90.60;98908.25;4918884;29;20048;-81
2023/12/16 01:48:31;;;;;;;25.10;14.95;;;;;;;6.88;90.13;98900.78;4918908;29;20576;-81
2023/12/16 01:51:00;;;;;;;21.08;13.93;;;;;;;6.85;88.69;98926.94;4933510;29;20054;-81
2023/12/16 01:53:29;;;;;;;21.48;14.50;;;;;;;6.84;87.44;98926.09;4941661;29;20073;-81
2023/12/16 01:55:58;;;;;;;20.17;13.63;;;;;;;6.83;89.04;98914.06;4941085;29;20063;-81
2023/12/16 01:58:26;;;;;;;20.38;14.30;;;;;;;6.85;89.20;98927.78;4924798;29;20080;-80
2023/12/16 02:00:53;;;;;;;21.70;13.88;;;;;;;6.85;90.02;98917.41;4919975;29;20465;-80
2023/12/16 02:03:23;;;;;;;23.25;15.65;;;;;;;6.86;90.92;98929.41;4920074;29;20052;-81
2023/12/16 02:05:52;;;;;;;24.08;15.07;;;;;;;6.88;91.24;98935.34;4919652;29;20059;-81
2023/12/16 02:08:20;;;;;;;22.60;14.85;;;;;;;6.89;91.65;98939.63;4919538;29;20402;-80
2023/12/16 02:10:47;;;;;;;23.75;16.17;;;;;;;6.87;90.74;98944.06;4919304;29;20107;-80
2023/12/16 02:13:18;;;;;;;22.77;15.63;;;;;;;6.87;91.63;98951.84;4919138;29;20055;-80
2023/12/16 02:15:46;;;;;;;22.38;14.90;;;;;;;6.90;91.33;98949.03;4919001;29;20080;-80
2023/12/16 02:18:14;;;;;;;23.25;15.68;;;;;;;6.91;90.31;98937.75;4918604;29;20054;-81
2023/12/16 02:20:43;;;;;;;27.77;17.27;;;;;;;6.91;90.80;98949.88;4918238;29;20048;-80
2023/12/16 02:23:15;;;;;;;25.02;15.70;;;;;;;6.95;90.62;98944.41;4918748;29;20059;-81
2023/12/16 02:25:43;;;;;;;22.73;16.10;;;;;;;6.92;89.77;98936.81;4919112;29;20116;-81
2023/12/16 02:28:11;;;;;;;27.58;16.65;;;;;;;6.93;90.60;98920.31;4918291;29;20056;-80
2023/12/16 02:30:39;;;;;;;23.27;15.40;;;;;;;6.95;90.86;98913.25;4919162;29;20074;-81
2023/12/16 02:33:06;;;;;;;24.17;16.10;;;;;;;6.95;90.02;98913.25;4918431;29;20062;-80
2023/12/16 02:35:34;;;;;;;26.60;16.70;;;;;;;6.93;89.93;98915.13;4918195;29;20067;-81
2023/12/16 02:38:02;;;;;;;21.90;14.90;;;;;;;6.94;88.92;98915.94;4918505;29;20052;-81
2023/12/16 02:40:31;;;;;;;25.83;16.10;;;;;;;6.91;88.90;98917.00;4918895;29;20048;-80
2023/12/16 02:42:59;;;;;;;24.27;15.85;;;;;;;6.89;89.27;98918.84;4918264;29;20055;-80
2023/12/16 02:45:26;;;;;;;23.08;15.77;;;;;;;6.85;88.13;98912.22;4918659;29;20051;-81
2023/12/16 02:47:54;;;;;;;24.20;15.35;;;;;;;6.84;88.10;98915.72;4917900;29;20056;-80
2023/12/16 02:50:22;;;;;;;25.17;16.17;;;;;;;6.85;88.40;98922.59;4918177;29;20052;-80
2023/12/16 02:52:49;;;;;;;27.17;17.25;;;;;;;6.82;88.44;98917.56;4917408;29;20116;-81
2023/12/16 02:55:18;;;;;;;24.92;16.40;;;;;;;6.87;89.31;98915.53;4918192;29;20112;-81
2023/12/16 02:57:47;;;;;;;26.02;16.60;;;;;;;6.89;90.43;98916.25;4917813;29;20685;-81
2023/12/16 03:00:15;;;;;;;28.77;17.30;;;;;;;6.91;90.26;98908.34;4917966;29;20096;-80
2023/12/16 03:02:43;;;;;;;23.27;15.60;;;;;;;6.91;89.83;98914.41;4918067;29;20477;-81
2023/12/16 03:05:11;;;;;;;25.70;16.67;;;;;;;6.90;88.71;98919.69;4918498;29;20064;-81
2023/12/16 03:07:39;;;;;;;23.63;15.95;;;;;;;6.87;88.59;98925.91;4917960;29;20071;-80
2023/12/16 03:10:08;;;;;;;22.25;15.25;;;;;;;6.85;87.50;98935.56;4918187;29;20052;-81
2023/12/16 03:12:36;;;;;;;22.02;15.15;;;;;;;6.81;86.88;98931.50;4917888;29;20614;-80
2023/12/16 03:15:07;;;;;;;23.15;15.02;;;;;;;6.80;86.59;98941.03;4917640;29;20060;-81
2023/12/16 03:17:35;;;;;;;21.27;14.27;;;;;;;6.79;87.32;98947.16;4918012;29;20055;-81
2023/12/16 03:20:04;;;;;;;21.95;15.32;;;;;;;6.77;87.65;98946.41;4917534;29;20055;-80
2023/12/16 03:22:33;;;;;;;22.17;15.38;;;;;;;6.78;86.86;98944.69;4918069;29;20060;-81
2023/12/16 03:25:01;;;;;;;24.50;15.85;;;;;;;6.75;86.08;98944.84;4919626;29;20052;-81
2023/12/16 03:27:29;;;;;;;24.00;15.80;;;;;;;6.72;85.67;98938.13;4919858;29;20095;-81
2023/12/16 03:29:56;;;;;;;24.20;15.93;;;;;;;6.73;86.01;98942.34;4917498;29;20469;-81
2023/12/16 03:32:25;;;;;;;19.85;14.20;;;;;;;6.73;85.70;98936.34;4917919;29;20560;-80
2023/12/16 03:34:53;;;;;;;25.88;16.17;;;;;;;6.72;86.48;98938.13;4917442;29;20052;-80
2023/12/16 03:37:21;;;;;;;23.33;15.80;;;;;;;6.71;87.23;98946.84;4917659;29;20116;-80
2023/12/16 03:39:48;;;;;;;24.23;16.77;;;;;;;6.70;86.96;98950.34;4917677;29;20056;-80
2023/12/16 03:42:16;;;;;;;23.17;14.98;;;;;;;6.70;87.26;98946.94;4917409;29;20052;-80
2023/12/16 03:44:46;;;;;;;28.58;16.38;;;;;;;6.72;88.49;98945.06;4917278;29;20111;-81
2023/12/16 03:47:14;;;;;;;26.50;17.15;;;;;;;6.75;89.17;98950.88;4917148;29;20536;-81
2023/12/16 03:49:43;;;;;;;31.25;18.15;;;;;;;6.77;89.66;98953.38;4917600;29;20048;-81
2023/12/16 03:52:11;;;;;;;24.73;17.77;;;;;;;6.78;89.57;98949.88;4918039;29;20058;-81
2023/12/16 03:54:40;;;;;;;28.85;18.45;;;;;;;6.78;89.39;98949.88;4917067;29;20063;-80
2023/12/16 03:57:08;;;;;;;27.23;17.77;;;;;;;6.74;89.30;98946.63;4917663;29;20587;-81
2023/12/16 03:59:35;;;;;;;27.27;17.98;;;;;;;6.74;88.10;98946.63;4916969;29;20516;-80
2023/12/16 04:02:03;;;;;;;27.63;16.95;;;;;;;6.76;89.07;98949.13;4917142;29;20059;-80
2023/12/16 04:04:32;;;;;;;27.65;18.88;;;;;;;6.80;89.77;98950.59;4916895;29;20059;-80
2023/12/16 04:07:02;;;;;;;34.22;19.85;;;;;;;6.83;90.35;98946.97;4917380;29;20044;-80
2023/12/16 04:09:30;;;;;;;30.08;18.83;;;;;;;6.85;90.15;98948.53;4916921;29;20535;-80
2023/12/16 04:11:57;;;;;;;31.38;18.55;;;;;;;6.86;90.47;98955.38;4916903;29;20131;-80
2023/12/16 04:14:26;;;;;;;33.88;19.77;;;;;;;6.88;90.42;98950.09;4916982;29;20477;-80
2023/12/16 04:16:54;;;;;;;28.42;17.90;;;;;;;6.87;89.20;98946.66;4917059;29;20048;-82
2023/12/16 04:19:21;;;;;;;25.67;17.65;;;;;;;6.86;88.77;98957.13;4916736;29;20103;-80
2023/12/16 04:21:49;;;;;;;26.10;17.33;;;;;;;6.85;89.21;98943.34;4916819;29;20060;-81
2023/12/16 04:24:18;;;;;;;26.33;17.40;;;;;;;6.83;88.94;98934.81;4916836;29;20058;-79
2023/12/16 04:26:46;;;;;;;25.33;16.85;;;;;;;6.81;89.35;98931.50;4916207;29;20077;-80
2023/12/16 04:29:13;;;;;;;26.70;17.45;;;;;;;6.80;88.88;98935.03;4916816;29;20091;-82
2023/12/16 04:31:41;;;;;;;25.80;17.67;;;;;;;6.78;89.05;98936.91;4916657;29;20620;-81
2023/12/16 04:34:09;;;;;;;28.73;17.73;;;;;;;6.75;88.18;98944.84;4917076;29;20476;-80
2023/12/16 04:36:37;;;;;;;25.65;17.58;;;;;;;6.73;88.26;98944.13;4916494;29;20107;-80
2023/12/16 04:39:07;;;;;;;29.17;18.25;;;;;;;6.72;89.11;98938.13;4917281;29;20139;-80
2023/12/16 04:41:36;;;;;;;29.23;17.73;;;;;;;6.75;89.81;98942.25;4917552;29;20121;-80
2023/12/16 04:44:05;;;;;;;26.30;16.88;;;;;;;6.74;89.11;98945.81;4917349;29;20469;-80
2023/12/16 04:46:33;;;;;;;25.38;17.30;;;;;;;6.72;87.28;98945.06;4916961;29;20052;-81
2023/12/16 04:49:01;;;;;;;28.40;17.45;;;;;;;6.67;86.09;98944.53;4917181;29;20523;-80
2023/12/16 04:51:29;;;;;;;26.05;18.38;;;;;;;6.65;86.90;98946.38;4917212;29;20052;-80
2023/12/16 04:53:57;;;;;;;25.00;16.77;;;;;;;6.64;86.57;98942.13;4916899;29;20056;-81
2023/12/16 04:56:25;;;;;;;27.95;17.10;;;;;;;6.58;85.50;98938.16;4916485;29;20082;-80
2023/12/16 04:58:54;;;;;;;25.48;17.48;;;;;;;6.55;85.04;98936.59;4916577;29;20107;-81
2023/12/16 05:01:22;;;;;;;27.77;16.60;;;;;;;6.53;84.71;98943.66;4916666;29;20053;-80
2023/12/16 05:03:50;;;;;;;24.08;16.48;;;;;;;6.50;84.65;98946.44;4916423;29;20528;-81
2023/12/16 05:06:18;;;;;;;25.83;17.60;;;;;;;6.48;84.36;98940.53;4916167;29;20417;-80
2023/12/16 05:08:45;;;;;;;27.83;17.48;;;;;;;6.45;84.08;98938.16;4916119;29;20559;-80
2023/12/16 05:11:13;;;;;;;24.90;15.20;;;;;;;6.42;83.99;98951.28;4916330;29;20119;-81
2023/12/16 05:13:41;;;;;;;27.13;17.30;;;;;;;6.41;85.22;98965.19;4917119;29;20056;-81
2023/12/16 05:16:10;;;;;;;24.27;16.63;;;;;;;6.43;85.50;98968.53;4916735;29;20052;-81
2023/12/16 05:18:38;;;;;;;26.05;16.83;;;;;;;6.46;86.20;98973.50;4920391;29;20514;-81
2023/12/16 05:21:06;;;;;;;25.48;16.42;;;;;;;6.48;86.04;98971.66;4920391;29;20469;-81
2023/12/16 05:23:34;;;;;;;26.73;17.52;;;;;;;6.50;86.80;98974.97;4919366;29;20516;-80
2023/12/16 05:26:01;;;;;;;21.33;13.60;;;;;;;6.51;87.55;98971.44;4919769;29;20071;-80
2023/12/16 05:28:29;;;;;;;25.92;15.80;;;;;;;6.49;87.16;98970.69;4920294;29;20088;-80
2023/12/16 05:30:57;;;;;;;21.88;15.10;;;;;;;6.50;86.87;98974.97;4920457;29;20052;-79
2023/12/16 05:33:27;;;;;;;21.55;14.18;;;;;;;6.53;88.00;98977.34;4919927;29;20044;-80
2023/12/16 05:35:54;;;;;;;18.17;12.68;;;;;;;6.55;88.60;98972.09;4919809;29;20079;-80
2023/12/16 05:38:22;;;;;;;19.75;12.70;;;;;;;6.56;88.17;98979.78;4919459;29;20104;-79
2023/12/16 05:40:52;;;;;;;17.98;12.20;;;;;;;6.56;86.75;98971.16;4920313;29;20052;-80
2023/12/16 05:43:20;;;;;;;17.08;11.45;;;;;;;6.55;86.63;98978.09;4919740;29;20063;-80
2023/12/16 05:45:48;;;;;;;16.77;11.82;;;;;;;6.55;87.58;98978.09;4919066;29;20103;-80
2023/12/16 05:48:16;;;;;;;15.88;11.25;;;;;;;6.57;88.24;98978.81;4918698;29;20052;-80
2023/12/16 05:50:45;;;;;;;19.55;12.38;;;;;;;6.58;89.38;98980.50;4918974;29;20111;-80
2023/12/16 05:53:13;;;;;;;23.52;15.40;;;;;;;6.63;89.25;98966.41;4919025;29;20108;-80
2023/12/16 05:55:40;;;;;;;20.90;13.95;;;;;;;6.59;87.58;98976.97;4918927;29;20096;-80
2023/12/16 05:58:08;;;;;;;19.90;12.75;;;;;;;6.58;86.85;98972.72;4919116;29;20417;-80
2023/12/16 06:00:36;;;;;;;19.35;14.00;;;;;;;6.59;87.84;98969.19;4918932;29;20052;-80
2023/12/16 06:03:04;;;;;;;16.30;11.60;;;;;;;6.59;88.12;98976.97;4919104;29;20060;-80
2023/12/16 06:05:31;;;;;;;16.90;12.77;;;;;;;6.60;87.19;98981.25;4919157;29;20087;-80
2023/12/16 06:08:00;;;;;;;25.13;13.23;;;;;;;6.58;87.23;98979.66;4918814;29;20385;-80
2023/12/16 06:10:28;;;;;;;22.35;13.13;;;;;;;6.56;86.87;98984.13;4919234;29;20052;-80
2023/12/16 06:12:56;;;;;;;18.30;13.10;;;;;;;6.52;84.93;98985.25;4919688;29;20052;-79
2023/12/16 06:15:23;;;;;;;19.50;12.93;;;;;;;6.52;86.56;98983.50;4919298;29;20052;-80
2023/12/16 06:17:51;;;;;;;18.58;12.48;;;;;;;6.55;88.13;98988.47;4934809;29;20094;-80
2023/12/16 06:20:19;;;;;;;19.73;12.77;;;;;;;6.59;89.28;98983.94;4941505;29;20080;-80
2023/12/16 06:22:47;;;;;;;18.65;13.90;;;;;;;6.60;88.96;98982.97;4940765;29;20044;-80
2023/12/16 06:25:16;;;;;;;21.63;14.27;;;;;;;6.60;89.28;98981.25;4923306;29;20052;-80
2023/12/16 06:27:44;;;;;;;19.23;14.05;;;;;;;6.60;89.21;98980.38;4917975;29;20048;-80
2023/12/16 06:30:13;;;;;;;20.95;14.23;;;;;;;6.60;88.92;98989.03;4918640;29;20056;-80
2023/12/16 06:32:41;;;;;;;18.48;13.82;;;;;;;6.59;87.62;98989.13;4919481;29;20142;-80
2023/12/16 06:35:09;;;;;;;21.27;14.30;;;;;;;6.60;87.48;98998.53;4919386;29;20063;-80
2023/12/16 06:37:37;;;;;;;18.45;12.57;;;;;;;6.66;88.93;99000.75;4918693;29;20044;-80
2023/12/16 06:40:07;;;;;;;23.80;15.98;;;;;;;6.69;88.60;98995.38;4918556;29;20087;-80
2023/12/16 06:42:36;;;;;;;32.28;19.88;;;;;;;6.71;87.44;98992.66;4918780;29;20060;-80
2023/12/16 06:45:06;;;;;;;58.58;33.58;;;;;;;6.70;86.82;98991.84;4918494;29;20044;-81
2023/12/16 06:47:34;;;;;;;43.85;24.80;;;;;;;6.71;85.70;98983.16;4918367;29;20052;-80
2023/12/16 06:50:02;;;;;;;36.60;21.35;;;;;;;6.74;87.15;98988.13;4918223;29;20564;-79
2023/12/16 06:52:29;;;;;;;28.23;18.55;;;;;;;6.78;88.41;98989.59;4918757;29;20056;-80
2023/12/16 06:54:57;;;;;;;25.23;16.80;;;;;;;6.79;88.55;98990.44;4918881;29;20111;-80
2023/12/16 06:57:25;;;;;;;20.05;14.63;;;;;;;6.80;88.53;98992.94;4918431;29;20106;-80
2023/12/16 06:59:54;;;;;;;20.95;14.25;;;;;;;6.81;88.35;98994.56;4918012;29;20567;-80
2023/12/16 07:02:22;;;;;;;20.45;14.15;;;;;;;6.82;87.87;98998.00;4918221;29;20511;-80
2023/12/16 07:04:49;;;;;;;23.05;15.85;;;;;;;6.85;88.17;98997.00;4918709;29;20052;-80
2023/12/16 07:07:17;;;;;;;21.85;14.48;;;;;;;6.87;87.61;98995.97;4918195;29;20052;-80
2023/12/16 07:09:45;;;;;;;21.70;14.95;;;;;;;6.86;86.16;98996.88;4917525;29;20052;-79
2023/12/16 07:12:13;;;;;;;20.13;14.27;;;;;;;6.86;86.40;98996.88;4917753;29;20091;-80
2023/12/16 07:14:41;;;;;;;21.92;13.98;;;;;;;6.87;85.61;98995.97;4918102;29;20059;-80
2023/12/16 07:17:10;;;;;;;19.45;14.38;;;;;;;6.86;85.63;99001.25;4918077;29;20060;-79
2023/12/16 07:19:38;;;;;;;24.25;16.33;;;;;;;6.87;86.75;98993.38;4917539;29;20044;-80
2023/12/16 07:22:06;;;;;;;24.88;16.38;;;;;;;6.88;86.64;98997.59;4919129;29;20130;-80
2023/12/16 07:24:33;;;;;;;24.17;16.67;;;;;;;6.87;85.25;99001.16;4919258;29;20500;-80
2023/12/16 07:27:01;;;;;;;23.30;15.10;;;;;;;6.86;84.85;99006.44;4918880;29;20083;-79
2023/12/16 07:29:29;;;;;;;23.88;15.88;;;;;;;6.92;86.33;99012.03;4918126;29;20404;-80
2023/12/16 07:31:56;;;;;;;24.50;15.45;;;;;;;6.92;86.60;99012.03;4918310;29;20056;-80
2023/12/16 07:34:26;;;;;;;22.40;15.25;;;;;;;6.90;86.04;99020.88;4918300;29;20048;-80
2023/12/16 07:36:53;;;;;;;21.23;15.23;;;;;;;6.82;84.69;99021.34;4918035;29;20056;-83
2023/12/16 07:39:21;;;;;;;20.77;13.45;;;;;;;6.77;83.69;99020.81;4916815;29;20571;-79
2023/12/16 07:41:49;;;;;;;18.27;13.20;;;;;;;6.74;84.72;99019.25;4918019;29;20059;-80
2023/12/16 07:44:17;;;;;;;20.55;13.80;;;;;;;6.75;84.94;99026.09;4917644;29;20044;-80
2023/12/16 07:46:45;;;;;;;19.60;13.32;;;;;;;6.72;83.91;99028.91;4917042;29;20497;-80
2023/12/16 07:49:13;;;;;;;20.48;13.82;;;;;;;6.72;83.38;99035.84;4917475;29;20047;-79
2023/12/16 07:51:45;;;;;;;18.70;13.68;;;;;;;6.77;86.60;99044.16;4917656;29;20048;-79
2023/12/16 07:54:14;;;;;;;18.05;13.35;;;;;;;6.81;86.31;99045.63;4918053;29;20052;-79
2023/12/16 07:56:48;;;;;;;20.67;14.57;;;;;;;6.80;84.86;99046.59;4916905;29;20060;-80
2023/12/16 07:59:18;;;;;;;19.48;14.68;;;;;;;6.82;85.04;99042.09;4917001;29;20296;-79
2023/12/16 08:01:52;;;;;;;18.50;13.82;;;;;;;6.82;84.98;99044.69;4901577;29;20059;-80
2023/12/16 08:04:23;;;;;;;17.85;13.35;;;;;;;6.77;83.57;99049.34;4917887;29;20048;-81
2023/12/16 08:06:56;;;;;;;18.30;13.55;;;;;;;6.75;84.67;99056.41;4917744;29;20130;-79
2023/12/16 08:09:29;;;;;;;23.35;15.30;;;;;;;6.76;84.78;99058.91;4917512;29;20044;-79
2023/12/16 08:12:04;;;;;;;19.25;13.82;;;;;;;6.80;86.34;99059.56;4907542;29;20052;-80
2023/12/16 08:14:39;;;;;;;18.40;14.05;;;;;;;6.79;85.58;99063.88;4910155;29;20090;-80
2023/12/16 08:17:10;;;;;;;21.75;14.48;;;;;;;6.78;84.39;99069.19;4918067;29;20052;-81
2023/12/16 08:29:23;;;;;;;19.20;14.13;;;;;;;6.71;87.10;99065.31;4953775;29;20094;-79
2023/12/16 08:31:51;;;;;;;18.85;13.80;;;;;;;6.75;86.96;99066.78;4955305;29;20058;-79
2023/12/16 08:34:22;;;;;;;17.67;14.00;;;;;;;6.82;87.74;99057.66;4955248;29;20054;-79
2023/12/16 08:36:52;;;;;;;17.23;12.80;;;;;;;6.81;86.25;99067.22;4955186;29;20052;-79
2023/12/16 08:39:21;;;;;;;16.55;12.45;;;;;;;6.79;85.44;99069.06;4955043;29;20063;-79
2023/12/16 08:41:56;;;;;;;18.20;12.93;;;;;;;6.83;86.24;99068.91;4955382;29;20061;-79
2023/12/16 08:48:11;;;;;;;18.02;12.43;;;;;;;6.82;85.89;99078.41;4955488;29;20409;-80
2023/12/16 08:50:56;;;;;;;18.50;13.50;;;;;;;6.79;86.55;99083.81;4955422;28;20043;-79
2023/12/16 08:53:25;;;;;;;15.75;12.15;;;;;;;6.77;86.88;99086.50;4959076;29;20059;-80
2023/12/16 08:55:57;;;;;;;16.58;13.38;;;;;;;6.84;88.31;99086.13;4972750;29;20065;-80
2023/12/16 08:58:26;;;;;;;15.88;11.77;;;;;;;6.83;86.04;99093.06;4975788;29;20079;-80
2023/12/16 09:00:56;;;;;;;16.13;12.60;;;;;;;6.84;85.38;99093.91;4976933;28;20130;-81
2023/12/16 09:03:24;;;;;;;14.77;11.75;;;;;;;6.86;85.27;99098.06;4976376;29;20054;-79
2023/12/16 09:05:52;;;;;;;15.43;12.05;;;;;;;6.88;86.38;99103.97;4975541;28;20051;-80
2023/12/16 09:08:22;;;;;;;18.02;13.35;;;;;;;6.89;86.83;99116.03;4976533;28;20055;-79
2023/12/16 09:10:50;;;;;;;21.77;13.75;;;;;;;6.93;87.44;99116.66;4975925;28;20055;-80
2023/12/16 09:13:21;;;;;;;14.82;11.38;;;;;;;6.93;86.48;99116.66;4976880;29;20058;-79
2023/12/16 09:15:49;;;;;;;13.60;11.15;;;;;;;6.90;85.25;99114.28;4977718;28;20078;-80
2023/12/16 09:18:19;;;;;;;13.30;10.73;;;;;;;6.89;84.97;99120.41;4977903;28;20058;-81
2023/12/16 09:20:47;;;;;;;15.02;11.70;;;;;;;6.94;86.47;99131.31;4974685;28;20062;-79
2023/12/16 09:23:15;;;;;;;13.95;11.10;;;;;;;6.99;87.52;99127.50;4978786;29;20082;-81
2023/12/16 09:25:45;;;;;;;14.32;10.10;;;;;;;7.00;86.70;99126.56;4978500;28;20496;-80
2023/12/16 13:13:00;;;;;;;6.77;6.07;;;;;;;8.10;76.59;98951.28;5184141;23;20062;-80
2023/12/16 14:30:00;;;;;;;10.77;6.72;;;;;;;7.67;78.93;98946.47;1423075;26;20289;-81
2023/12/16 14:32:33;;;;;;;9.10;6.82;;;;;;;7.65;79.53;98948.34;4963604;28;20032;-81
2023/12/16 14:48:34;;;;;;;7.97;6.97;;;;;;;7.65;82.13;98945.75;4734392;23;20304;-81
2023/12/16 14:51:04;;;;;;;8.77;7.32;;;;;;;7.64;82.96;98937.13;4999283;28;20042;-82
2023/12/16 14:53:37;;;;;;;7.97;6.22;;;;;;;7.64;82.34;98928.53;4985183;28;20059;-82
2023/12/16 14:56:08;;;;;;;9.52;7.57;;;;;;;7.64;82.10;98931.13;4991478;28;20035;-81
2023/12/16 15:55:53;;;;;;;11.17;8.70;;;;;;;7.23;82.49;98901.00;4387322;23;20058;-82
2023/12/16 17:48:36;;;;;;;16.08;11.13;;;;;;;4.94;77.38;98923.97;4905412;29;20059;-84
2023/12/16 17:51:10;;;;;;;17.45;12.70;;;;;;;4.93;77.44;98922.28;5506092;23;20026;-81
2023/12/16 17:53:45;;;;;;;19.95;13.25;;;;;;;4.86;76.86;98915.81;5002740;28;20030;-81
2023/12/16 17:56:23;;;;;;;;;;;;;;;4.85;76.85;98932.22;5003353;28;20027;-82
2023/12/16 18:02:01;;;;;;;18.95;15.25;;;;;;;4.70;77.19;98922.78;4997377;28;20034;-82
2023/12/16 19:00:20;;;;;;;15.98;11.32;;;;;;;4.22;80.54;98945.28;5001108;28;20031;-84
2023/12/16 19:08:19;;;;;;;17.77;12.15;;;;;;;4.27;81.09;98943.28;5075470;23;20046;-77
2023/12/16 19:10:47;;;;;;;16.17;11.50;;;;;;;4.23;79.69;98946.94;4976204;28;20058;-77
2023/12/16 19:13:16;;;;;;;16.35;11.02;;;;;;;4.16;78.77;98946.47;4965340;28;20130;-79
2023/12/16 19:15:43;;;;;;;17.52;11.63;;;;;;;4.12;78.92;98955.28;4963688;28;20043;-79
2023/12/16 19:18:11;;;;;;;14.15;10.55;;;;;;;4.07;79.88;98952.97;4955212;28;20082;-78
2023/12/16 19:20:39;;;;;;;15.15;11.43;;;;;;;4.11;81.77;98953.59;4955451;28;20047;-79
2023/12/16 19:23:06;;;;;;;14.90;10.45;;;;;;;4.11;82.20;98957.03;4955237;28;20504;-78
2023/12/16 19:25:34;;;;;;;13.65;9.98;;;;;;;4.11;80.83;98957.03;4955067;28;20055;-79
2023/12/16 19:28:02;;;;;;;14.48;10.82;;;;;;;4.05;79.78;98959.94;4954592;28;20055;-80
2023/12/16 19:30:31;;;;;;;13.75;10.80;;;;;;;4.02;80.58;98970.44;4955822;28;20050;-79
2023/12/16 19:32:58;;;;;;;15.80;10.55;;;;;;;4.00;80.82;98982.63;4960627;28;20120;-79
2023/12/16 19:35:26;;;;;;;14.88;10.77;;;;;;;3.97;80.74;98977.59;4972811;28;20054;-78
2023/12/16 19:37:53;;;;;;;14.60;10.57;;;;;;;3.94;80.93;98977.78;4973538;28;20062;-79
2023/12/16 19:40:21;;;;;;;17.25;11.10;;;;;;;3.92;80.17;98985.59;4973619;28;20502;-78
2023/12/16 19:42:49;;;;;;;14.25;10.25;;;;;;;3.90;79.55;98992.59;4968618;28;20551;-79
2023/12/16 19:45:16;;;;;;;14.65;11.07;;;;;;;3.88;79.58;98996.16;4955801;28;20090;-78
2023/12/16 19:47:45;;;;;;;15.38;10.65;;;;;;;3.83;79.19;99000.75;4972201;28;20070;-78
2023/12/16 19:50:14;;;;;;;14.05;10.60;;;;;;;3.81;79.94;98995.66;4973858;28;20043;-78
2023/12/16 19:52:41;;;;;;;19.33;11.02;;;;;;;3.82;79.78;98993.91;4972289;28;20050;-78
2023/12/16 19:55:10;;;;;;;16.67;12.05;;;;;;;3.82;80.76;98983.56;4962504;28;20102;-79
2023/12/16 19:57:37;;;;;;;15.45;11.63;;;;;;;3.81;81.40;98990.50;4954265;28;20051;-78
2023/12/16 20:00:07;;;;;;;15.73;11.63;;;;;;;3.81;80.35;98992.25;4953935;28;20082;-78
2023/12/16 20:02:34;;;;;;;16.17;11.05;;;;;;;3.80;79.76;98991.38;4974990;28;20054;-78
2023/12/16 20:05:04;;;;;;;14.88;11.65;;;;;;;3.79;81.29;98999.25;4973722;28;20050;-79
2023/12/16 20:07:31;;;;;;;15.45;10.60;;;;;;;3.79;80.64;99012.16;4973598;28;20050;-79
2023/12/16 20:09:59;;;;;;;15.70;9.70;;;;;;;3.74;79.67;99011.53;4972464;28;20710;-78
2023/12/16 20:12:26;;;;;;;15.65;12.13;;;;;;;3.71;81.62;99013.34;4972697;28;20059;-78
2023/12/16 20:14:55;;;;;;;18.35;11.52;;;;;;;3.72;82.47;99020.19;4973775;28;20463;-78
2023/12/16 20:17:23;;;;;;;17.85;10.13;;;;;;;3.66;81.25;99017.94;4973650;28;20050;-78
2023/12/16 20:19:51;;;;;;;18.52;11.23;;;;;;;3.63;81.02;99017.25;4972933;28;20428;-78
2023/12/16 20:22:20;;;;;;;16.05;11.48;;;;;;;3.63;81.03;99023.25;4971918;28;20146;-78
2023/12/16 20:24:48;;;;;;;16.73;11.82;;;;;;;3.65;81.21;99013.69;4971678;28;20074;-78
2023/12/16 20:27:15;;;;;;;23.75;13.43;;;;;;;3.67;80.74;99011.00;4971625;28;20055;-78
2023/12/16 20:29:44;;;;;;;22.00;14.55;;;;;;;3.71;81.11;99007.38;4970795;28;20081;-78
2023/12/16 20:32:12;;;;;;;21.75;14.25;;;;;;;3.70;79.98;98993.63;4971906;28;20047;-78
2023/12/16 20:34:40;;;;;;;19.60;11.52;;;;;;;3.65;78.95;98992.19;4972156;28;20086;-78
2023/12/16 20:37:09;;;;;;;15.25;10.68;;;;;;;3.59;78.78;98984.78;4972493;28;20058;-79
2023/12/16 20:42:24;;;;;;;13.25;9.90;;;;;;;3.53;78.52;98993.66;4974205;28;20086;-78
2023/12/16 20:44:52;;;;;;;17.05;10.68;;;;;;;3.47;78.51;98987.06;4973718;28;20093;-78
2023/12/16 20:47:19;;;;;;;20.05;12.40;;;;;;;3.44;78.70;98988.97;4973852;28;20054;-78
2023/12/16 20:49:47;;;;;;;14.65;11.77;;;;;;;3.43;79.03;98995.03;4976882;28;20050;-77
2023/12/16 20:52:14;;;;;;;14.82;11.23;;;;;;;3.40;79.22;98984.88;4977315;28;20051;-78
2023/12/16 20:54:43;;;;;;;15.05;11.00;;;;;;;3.40;80.72;98988.28;4977355;28;20423;-78